sensor_id;sensor_type;location;lat;lon;timestamp;pressure;altitude;pressure_sealevel;temperature;humidity
33286;BME280;19656;50.096;20.014;2022-12-08T00:18:15;98531.81;;;5.96;56.37
33286;BME280;19656;50.096;20.014;2022-12-08T00:45:36;98545.27;;;5.77;56.27
33286;BME280;19656;50.096;20.014;2022-12-08T01:13:48;98558.23;;;5.79;56.26
33286;BME280;19656;50.096;20.014;2022-12-08T01:19:17;98572.20;;;5.77;56.16
33286;BME280;19656;50.096;20.014;2022-12-08T01:24:30;98569.05;;;5.77;56.29
33286;BME280;19656;50.096;20.014;2022-12-08T01:30:04;98562.27;;;5.82;56.38
33286;BME280;19656;50.096;20.014;2022-12-08T01:36:07;98560.59;;;5.84;56.23
33286;BME280;19656;50.096;20.014;2022-12-08T01:41:42;98557.58;;;5.81;56.10
33286;BME280;19656;50.096;20.014;2022-12-08T01:47:07;98559.48;;;5.78;56.36
33286;BME280;19656;50.096;20.014;2022-12-08T01:52:59;98561.52;;;5.76;56.11
33286;BME280;19656;50.096;20.014;2022-12-08T02:07:06;98559.75;;;5.69;56.01
33286;BME280;19656;50.096;20.014;2022-12-08T02:12:25;98560.23;;;5.63;56.28
33286;BME280;19656;50.096;20.014;2022-12-08T02:18:59;98565.52;;;5.59;56.20
33286;BME280;19656;50.096;20.014;2022-12-08T02:28:03;98564.14;;;5.72;56.15
33286;BME280;19656;50.096;20.014;2022-12-08T03:19:18;98572.95;;;5.11;57.56
33286;BME280;19656;50.096;20.014;2022-12-08T03:25:16;98568.55;;;5.08;57.43
33286;BME280;19656;50.096;20.014;2022-12-08T03:30:34;98570.55;;;5.06;57.74
33286;BME280;19656;50.096;20.014;2022-12-08T03:35:45;98567.43;;;5.05;57.57
33286;BME280;19656;50.096;20.014;2022-12-08T03:40:53;98566.76;;;5.08;57.63
33286;BME280;19656;50.096;20.014;2022-12-08T03:46:18;98570.36;;;5.07;57.79
33286;BME280;19656;50.096;20.014;2022-12-08T03:51:25;98564.94;;;5.06;57.59
33286;BME280;19656;50.096;20.014;2022-12-08T03:57:15;98562.85;;;5.02;58.20
33286;BME280;19656;50.096;20.014;2022-12-08T04:02:34;98566.21;;;5.16;58.65
33286;BME280;19656;50.096;20.014;2022-12-08T04:08:29;98564.88;;;5.22;58.86
33286;BME280;19656;50.096;20.014;2022-12-08T04:20:26;98566.25;;;5.19;58.12
33286;BME280;19656;50.096;20.014;2022-12-08T04:25:40;98562.22;;;5.15;58.39
33286;BME280;19656;50.096;20.014;2022-12-08T04:31:34;98560.22;;;5.12;58.23
33286;BME280;19656;50.096;20.014;2022-12-08T04:36:54;98559.83;;;5.09;58.16
33286;BME280;19656;50.096;20.014;2022-12-08T04:42:05;98559.98;;;5.03;58.22
33286;BME280;19656;50.096;20.014;2022-12-08T04:47:16;98553.81;;;4.96;58.40
33286;BME280;19656;50.096;20.014;2022-12-08T05:05:20;98549.73;;;5.04;59.89
33286;BME280;19656;50.096;20.014;2022-12-08T05:10:25;98552.66;;;5.05;59.31
33286;BME280;19656;50.096;20.014;2022-12-08T05:15:52;98547.66;;;5.03;59.13
33286;BME280;19656;50.096;20.014;2022-12-08T05:21:18;98544.08;;;5.01;59.10
33286;BME280;19656;50.096;20.014;2022-12-08T05:26:32;98548.26;;;4.94;59.75
33286;BME280;19656;50.096;20.014;2022-12-08T05:32:06;98550.31;;;4.87;60.53
33286;BME280;19656;50.096;20.014;2022-12-08T05:37:10;98558.39;;;4.84;61.19
33286;BME280;19656;50.096;20.014;2022-12-08T05:42:25;98558.90;;;4.81;61.42
33286;BME280;19656;50.096;20.014;2022-12-08T05:47:41;98559.20;;;4.78;61.68
33286;BME280;19656;50.096;20.014;2022-12-08T05:58:43;98561.70;;;4.69;61.98
33286;BME280;19656;50.096;20.014;2022-12-08T06:03:48;98567.80;;;4.63;61.84
33286;BME280;19656;50.096;20.014;2022-12-08T06:08:57;98565.88;;;4.59;62.28
33286;BME280;19656;50.096;20.014;2022-12-08T06:14:18;98576.60;;;4.55;62.46
33286;BME280;19656;50.096;20.014;2022-12-08T06:19:22;98588.10;;;4.54;62.42
33286;BME280;19656;50.096;20.014;2022-12-08T06:24:49;98593.16;;;4.54;62.54
33286;BME280;19656;50.096;20.014;2022-12-08T06:29:56;98591.41;;;4.50;63.01
33286;BME280;19656;50.096;20.014;2022-12-08T06:35:07;98591.27;;;4.49;63.28
33286;BME280;19656;50.096;20.014;2022-12-08T06:40:53;98597.50;;;4.51;63.60
33286;BME280;19656;50.096;20.014;2022-12-08T06:51:31;98610.38;;;4.62;63.20
33286;BME280;19656;50.096;20.014;2022-12-08T07:04:11;98607.52;;;4.98;61.92
33286;BME280;19656;50.096;20.014;2022-12-08T07:10:11;98611.68;;;5.14;60.73
33286;BME280;19656;50.096;20.014;2022-12-08T07:15:39;98613.91;;;5.18;59.71
33286;BME280;19656;50.096;20.014;2022-12-08T07:20:45;98615.45;;;5.20;59.50
33286;BME280;19656;50.096;20.014;2022-12-08T07:34:50;98623.35;;;5.24;60.24
33286;BME280;19656;50.096;20.014;2022-12-08T07:57:46;98625.91;;;5.18;61.28
33286;BME280;19656;50.096;20.014;2022-12-08T08:07:32;98625.25;;;5.24;61.14
33286;BME280;19656;50.096;20.014;2022-12-08T08:12:44;98625.14;;;5.31;60.15
33286;BME280;19656;50.096;20.014;2022-12-08T08:18:01;98629.86;;;5.35;59.41
33286;BME280;19656;50.096;20.014;2022-12-08T08:23:35;98624.19;;;5.43;58.87
33286;BME280;19656;50.096;20.014;2022-12-08T08:28:40;98620.87;;;5.54;58.54
33286;BME280;19656;50.096;20.014;2022-12-08T08:33:49;98615.20;;;5.58;58.06
33286;BME280;19656;50.096;20.014;2022-12-08T08:38:57;98618.02;;;5.65;58.18
33286;BME280;19656;50.096;20.014;2022-12-08T08:44:08;98614.77;;;5.77;58.20
33286;BME280;19656;50.096;20.014;2022-12-08T08:49:20;98612.04;;;5.86;57.85
33286;BME280;19656;50.096;20.014;2022-12-08T08:54:55;98612.52;;;5.95;57.32
33286;BME280;19656;50.096;20.014;2022-12-08T09:00:19;98611.36;;;6.01;57.33
33286;BME280;19656;50.096;20.014;2022-12-08T09:05:59;98608.39;;;6.07;57.09
33286;BME280;19656;50.096;20.014;2022-12-08T09:17:32;98602.85;;;6.19;56.26
33286;BME280;19656;50.096;20.014;2022-12-08T09:23:26;98593.41;;;6.25;56.20
33286;BME280;19656;50.096;20.014;2022-12-08T09:29:21;98592.38;;;6.28;56.54
33286;BME280;19656;50.096;20.014;2022-12-08T09:35:23;98586.79;;;6.40;56.22
33286;BME280;19656;50.096;20.014;2022-12-08T09:40:52;98581.65;;;6.37;55.98
33286;BME280;19656;50.096;20.014;2022-12-08T09:45:58;98575.26;;;6.38;56.02
33286;BME280;19656;50.096;20.014;2022-12-08T09:51:02;98573.53;;;6.48;56.09
33286;BME280;19656;50.096;20.014;2022-12-08T09:56:14;98570.63;;;6.53;55.69
33286;BME280;19656;50.096;20.014;2022-12-08T10:01:56;98563.45;;;6.51;55.41
33286;BME280;19656;50.096;20.014;2022-12-08T10:23:36;98541.92;;;6.55;54.95
33286;BME280;19656;50.096;20.014;2022-12-08T10:35:14;98543.42;;;6.57;54.51
33286;BME280;19656;50.096;20.014;2022-12-08T10:41:13;98537.89;;;6.61;54.31
33286;BME280;19656;50.096;20.014;2022-12-08T10:46:31;98540.27;;;6.66;54.39
33286;BME280;19656;50.096;20.014;2022-12-08T10:52:22;98533.27;;;6.78;54.35
33286;BME280;19656;50.096;20.014;2022-12-08T10:58:00;98529.00;;;6.85;53.63
33286;BME280;19656;50.096;20.014;2022-12-08T11:04:17;98519.75;;;6.87;53.56
33286;BME280;19656;50.096;20.014;2022-12-08T11:22:34;98511.20;;;6.89;52.90
33286;BME280;19656;50.096;20.014;2022-12-08T11:28:26;98510.08;;;6.86;52.79
33286;BME280;19656;50.096;20.014;2022-12-08T11:33:50;98508.17;;;6.86;52.70
33286;BME280;19656;50.096;20.014;2022-12-08T11:39:45;98510.08;;;6.83;52.92
33286;BME280;19656;50.096;20.014;2022-12-08T11:45:00;98510.77;;;6.83;52.70
33286;BME280;19656;50.096;20.014;2022-12-08T11:50:40;98506.45;;;6.82;52.85
33286;BME280;19656;50.096;20.014;2022-12-08T11:55:54;98508.33;;;6.83;52.86
33286;BME280;19656;50.096;20.014;2022-12-08T12:01:00;98504.45;;;6.80;52.83
33286;BME280;19656;50.096;20.014;2022-12-08T12:12:41;98507.27;;;6.83;53.21
33286;BME280;19656;50.096;20.014;2022-12-08T12:17:58;98509.40;;;6.86;53.23
33286;BME280;19656;50.096;20.014;2022-12-08T12:23:28;98510.84;;;6.82;53.24
33286;BME280;19656;50.096;20.014;2022-12-08T12:29:06;98509.34;;;6.81;53.54
33286;BME280;19656;50.096;20.014;2022-12-08T12:39:31;98505.96;;;6.78;54.02
33286;BME280;19656;50.096;20.014;2022-12-08T12:44:42;98503.95;;;6.79;54.46
33286;BME280;19656;50.096;20.014;2022-12-08T12:50:43;98494.71;;;6.81;54.41
33286;BME280;19656;50.096;20.014;2022-12-08T12:55:57;98486.75;;;6.78;54.48
33286;BME280;19656;50.096;20.014;2022-12-08T13:06:32;98490.00;;;6.70;55.25
33286;BME280;19656;50.096;20.014;2022-12-08T13:12:06;98489.27;;;6.68;55.23
33286;BME280;19656;50.096;20.014;2022-12-08T13:17:16;98479.36;;;6.62;56.13
33286;BME280;19656;50.096;20.014;2022-12-08T13:27:55;98481.11;;;6.59;56.06
33286;BME280;19656;50.096;20.014;2022-12-08T13:32:59;98479.74;;;6.58;55.67
33286;BME280;19656;50.096;20.014;2022-12-08T13:38:33;98478.25;;;6.60;55.80
33286;BME280;19656;50.096;20.014;2022-12-08T13:43:51;98476.43;;;6.61;55.96
33286;BME280;19656;50.096;20.014;2022-12-08T13:49:25;98468.93;;;6.62;55.69
33286;BME280;19656;50.096;20.014;2022-12-08T13:54:51;98465.55;;;6.63;57.33
33286;BME280;19656;50.096;20.014;2022-12-08T14:00:22;98467.26;;;6.61;57.81
33286;BME280;19656;50.096;20.014;2022-12-08T14:05:41;98471.82;;;6.58;58.65
33286;BME280;19656;50.096;20.014;2022-12-08T14:11:18;98473.32;;;6.53;59.13
33286;BME280;19656;50.096;20.014;2022-12-08T14:16:42;98475.71;;;6.48;59.57
33286;BME280;19656;50.096;20.014;2022-12-08T14:27:20;98482.94;;;6.38;60.11
33286;BME280;19656;50.096;20.014;2022-12-08T14:37:43;98481.35;;;6.28;60.94
33286;BME280;19656;50.096;20.014;2022-12-08T14:49:02;98479.12;;;6.17;61.68
33286;BME280;19656;50.096;20.014;2022-12-08T14:54:19;98479.34;;;6.17;62.21
33286;BME280;19656;50.096;20.014;2022-12-08T14:59:28;98477.17;;;6.18;62.51
33286;BME280;19656;50.096;20.014;2022-12-08T15:04:45;98478.48;;;6.23;62.52
33286;BME280;19656;50.096;20.014;2022-12-08T15:15:24;98478.48;;;6.13;62.39
33286;BME280;19656;50.096;20.014;2022-12-08T15:25:50;98469.46;;;6.07;62.56
33286;BME280;19656;50.096;20.014;2022-12-08T15:30:57;98465.19;;;6.05;62.53
33286;BME280;19656;50.096;20.014;2022-12-08T15:36:08;98466.40;;;6.02;62.48
33286;BME280;19656;50.096;20.014;2022-12-08T15:41:14;98462.77;;;6.00;62.18
33286;BME280;19656;50.096;20.014;2022-12-08T15:46:18;98459.82;;;6.00;62.52
33286;BME280;19656;50.096;20.014;2022-12-08T15:51:24;98462.65;;;5.99;62.37
33286;BME280;19656;50.096;20.014;2022-12-08T15:56:28;98460.14;;;5.97;62.35
33286;BME280;19656;50.096;20.014;2022-12-08T16:01:36;98453.25;;;5.94;62.81
33286;BME280;19656;50.096;20.014;2022-12-08T16:06:41;98452.85;;;5.91;62.81
33286;BME280;19656;50.096;20.014;2022-12-08T16:12:22;98449.65;;;5.91;62.77
33286;BME280;19656;50.096;20.014;2022-12-08T16:18:13;98446.36;;;5.90;62.82
33286;BME280;19656;50.096;20.014;2022-12-08T16:23:17;98443.48;;;5.99;62.21
33286;BME280;19656;50.096;20.014;2022-12-08T16:28:41;98446.42;;;6.00;61.84
33286;BME280;19656;50.096;20.014;2022-12-08T16:33:56;98445.20;;;5.97;61.79
33286;BME280;19656;50.096;20.014;2022-12-08T16:39:00;98443.24;;;5.93;61.57
33286;BME280;19656;50.096;20.014;2022-12-08T16:44:09;98441.22;;;5.91;61.62
33286;BME280;19656;50.096;20.014;2022-12-08T16:49:42;98439.84;;;5.87;61.63
33286;BME280;19656;50.096;20.014;2022-12-08T16:55:13;98445.48;;;5.83;61.79
33286;BME280;19656;50.096;20.014;2022-12-08T17:00:26;98439.16;;;5.80;62.10
33286;BME280;19656;50.096;20.014;2022-12-08T17:05:30;98438.60;;;5.77;62.35
33286;BME280;19656;50.096;20.014;2022-12-08T17:10:37;98435.04;;;5.75;62.22
33286;BME280;19656;50.096;20.014;2022-12-08T17:15:41;98432.54;;;5.72;62.23
33286;BME280;19656;50.096;20.014;2022-12-08T17:20:44;98430.66;;;5.78;62.47
33286;BME280;19656;50.096;20.014;2022-12-08T17:25:58;98428.80;;;5.79;62.12
33286;BME280;19656;50.096;20.014;2022-12-08T17:31:11;98433.19;;;5.76;62.14
33286;BME280;19656;50.096;20.014;2022-12-08T17:36:15;98431.21;;;5.74;62.47
33286;BME280;19656;50.096;20.014;2022-12-08T17:41:20;98437.67;;;5.72;62.69
33286;BME280;19656;50.096;20.014;2022-12-08T17:46:23;98435.08;;;5.70;62.48
33286;BME280;19656;50.096;20.014;2022-12-08T17:51:26;98433.09;;;5.71;62.46
33286;BME280;19656;50.096;20.014;2022-12-08T17:56:29;98424.02;;;5.74;62.51
33286;BME280;19656;50.096;20.014;2022-12-08T18:01:32;98426.34;;;5.73;62.50
33286;BME280;19656;50.096;20.014;2022-12-08T18:06:37;98421.17;;;5.67;62.51
33286;BME280;19656;50.096;20.014;2022-12-08T18:11:41;98423.58;;;5.68;62.38
33286;BME280;19656;50.096;20.014;2022-12-08T18:16:46;98415.83;;;5.75;62.57
33286;BME280;19656;50.096;20.014;2022-12-08T18:21:49;98403.04;;;5.81;62.52
33286;BME280;19656;50.096;20.014;2022-12-08T18:26:52;98404.27;;;5.84;62.50
33286;BME280;19656;50.096;20.014;2022-12-08T18:31:57;98402.36;;;5.87;62.10
33286;BME280;19656;50.096;20.014;2022-12-08T18:37:00;98398.91;;;5.89;62.17
33286;BME280;19656;50.096;20.014;2022-12-08T18:42:09;98393.83;;;5.85;62.15
33286;BME280;19656;50.096;20.014;2022-12-08T18:47:32;98388.52;;;5.82;62.12
33286;BME280;19656;50.096;20.014;2022-12-08T18:52:37;98385.08;;;5.77;62.11
33286;BME280;19656;50.096;20.014;2022-12-08T18:57:41;98382.08;;;5.81;62.59
33286;BME280;19656;50.096;20.014;2022-12-08T19:02:48;98386.27;;;5.88;62.36
33286;BME280;19656;50.096;20.014;2022-12-08T19:07:52;98385.84;;;5.86;61.91
33286;BME280;19656;50.096;20.014;2022-12-08T19:12:55;98380.85;;;5.84;61.19
33286;BME280;19656;50.096;20.014;2022-12-08T19:17:59;98379.39;;;5.88;60.51
33286;BME280;19656;50.096;20.014;2022-12-08T19:23:04;98376.68;;;5.93;59.72
33286;BME280;19656;50.096;20.014;2022-12-08T19:28:17;98371.99;;;6.05;59.52
33286;BME280;19656;50.096;20.014;2022-12-08T19:33:21;98368.98;;;6.22;58.49
33286;BME280;19656;50.096;20.014;2022-12-08T19:38:24;98368.88;;;6.27;58.21
33286;BME280;19656;50.096;20.014;2022-12-08T19:43:27;98370.40;;;6.28;57.96
33286;BME280;19656;50.096;20.014;2022-12-08T19:48:49;98369.92;;;6.37;57.76
33286;BME280;19656;50.096;20.014;2022-12-08T19:53:52;98366.91;;;6.43;56.97
33286;BME280;19656;50.096;20.014;2022-12-08T19:58:55;98366.77;;;6.43;56.68
33286;BME280;19656;50.096;20.014;2022-12-08T20:03:59;98362.38;;;6.43;56.45
33286;BME280;19656;50.096;20.014;2022-12-08T20:09:02;98364.30;;;6.43;56.21
33286;BME280;19656;50.096;20.014;2022-12-08T20:14:12;98360.12;;;6.45;56.19
33286;BME280;19656;50.096;20.014;2022-12-08T20:19:16;98365.04;;;6.45;56.13
33286;BME280;19656;50.096;20.014;2022-12-08T20:24:19;98362.64;;;6.47;56.10
33286;BME280;19656;50.096;20.014;2022-12-08T20:29:22;98362.35;;;6.49;56.39
33286;BME280;19656;50.096;20.014;2022-12-08T20:34:25;98365.23;;;6.48;58.07
33286;BME280;19656;50.096;20.014;2022-12-08T20:39:28;98360.65;;;6.42;59.35
33286;BME280;19656;50.096;20.014;2022-12-08T20:44:31;98354.86;;;6.41;59.72
33286;BME280;19656;50.096;20.014;2022-12-08T20:49:35;98353.35;;;6.56;60.67
33286;BME280;19656;50.096;20.014;2022-12-08T20:54:38;98357.55;;;6.44;59.73
33286;BME280;19656;50.096;20.014;2022-12-08T20:59:41;98359.86;;;6.27;59.80
33286;BME280;19656;50.096;20.014;2022-12-08T21:04:44;98364.08;;;6.15;60.31
33286;BME280;19656;50.096;20.014;2022-12-08T21:09:48;98368.45;;;6.06;60.35
33286;BME280;19656;50.096;20.014;2022-12-08T21:14:51;98368.81;;;5.96;60.76
33286;BME280;19656;50.096;20.014;2022-12-08T21:19:54;98369.45;;;5.90;61.16
33286;BME280;19656;50.096;20.014;2022-12-08T21:24:58;98362.95;;;5.86;61.21
33286;BME280;19656;50.096;20.014;2022-12-08T21:30:01;98365.36;;;5.81;61.66
33286;BME280;19656;50.096;20.014;2022-12-08T21:35:07;98370.84;;;5.77;62.01
33286;BME280;19656;50.096;20.014;2022-12-08T21:40:14;98368.05;;;5.73;61.92
33286;BME280;19656;50.096;20.014;2022-12-08T21:45:20;98360.30;;;5.74;62.10
33286;BME280;19656;50.096;20.014;2022-12-08T21:50:24;98364.20;;;5.70;62.19
33286;BME280;19656;50.096;20.014;2022-12-08T21:55:27;98361.14;;;5.68;62.33
33286;BME280;19656;50.096;20.014;2022-12-08T22:00:32;98361.30;;;5.68;62.60
33286;BME280;19656;50.096;20.014;2022-12-08T22:05:36;98363.46;;;5.64;62.37
33286;BME280;19656;50.096;20.014;2022-12-08T22:10:39;98357.70;;;5.63;62.81
33286;BME280;19656;50.096;20.014;2022-12-08T22:15:43;98346.82;;;5.66;62.58
33286;BME280;19656;50.096;20.014;2022-12-08T22:20:48;98346.96;;;5.63;62.91
33286;BME280;19656;50.096;20.014;2022-12-08T22:26:02;98345.86;;;5.60;62.49
33286;BME280;19656;50.096;20.014;2022-12-08T22:31:09;98348.27;;;5.58;62.90
33286;BME280;19656;50.096;20.014;2022-12-08T22:36:27;98354.83;;;5.57;62.91
33286;BME280;19656;50.096;20.014;2022-12-08T22:41:39;98349.39;;;5.57;63.24
33286;BME280;19656;50.096;20.014;2022-12-08T22:46:42;98340.34;;;5.62;63.37
33286;BME280;19656;50.096;20.014;2022-12-08T22:51:46;98341.98;;;5.67;63.15
33286;BME280;19656;50.096;20.014;2022-12-08T22:56:50;98336.13;;;5.71;62.82
33286;BME280;19656;50.096;20.014;2022-12-08T23:01:54;98328.77;;;5.74;62.87
33286;BME280;19656;50.096;20.014;2022-12-08T23:06:58;98325.89;;;5.78;62.83
33286;BME280;19656;50.096;20.014;2022-12-08T23:12:03;98329.30;;;5.80;62.78
33286;BME280;19656;50.096;20.014;2022-12-08T23:17:07;98333.08;;;5.76;62.41
33286;BME280;19656;50.096;20.014;2022-12-08T23:22:11;98333.48;;;5.71;62.57
33286;BME280;19656;50.096;20.014;2022-12-08T23:27:15;98332.01;;;5.69;62.58
33286;BME280;19656;50.096;20.014;2022-12-08T23:32:19;98336.15;;;5.67;62.11
33286;BME280;19656;50.096;20.014;2022-12-08T23:37:23;98327.54;;;5.64;62.74
33286;BME280;19656;50.096;20.014;2022-12-08T23:42:29;98325.42;;;5.61;63.02
33286;BME280;19656;50.096;20.014;2022-12-08T23:47:34;98326.52;;;5.57;62.78
33286;BME280;19656;50.096;20.014;2022-12-08T23:52:46;98323.66;;;5.55;63.19
33286;BME280;19656;50.096;20.014;2022-12-08T23:57:51;98324.58;;;5.54;62.99
